sensor_id;sensor_type;location;lat;lon;timestamp;P1;durP1;ratioP1;P2;durP2;ratioP2
47545;SDS011;50104;52.002;4.688;2023-05-07T00:01:20;19.60;;;13.80;;
47545;SDS011;50104;52.002;4.688;2023-05-07T00:06:22;19.55;;;14.98;;
47545;SDS011;50104;52.002;4.688;2023-05-07T00:11:22;20.55;;;14.98;;
47545;SDS011;50104;52.002;4.688;2023-05-07T00:16:23;25.10;;;15.93;;
47545;SDS011;50104;52.002;4.688;2023-05-07T00:21:24;20.83;;;15.43;;
47545;SDS011;50104;52.002;4.688;2023-05-07T00:26:26;22.05;;;15.30;;
47545;SDS011;50104;52.002;4.688;2023-05-07T00:31:27;24.13;;;15.25;;
47545;SDS011;50104;52.002;4.688;2023-05-07T00:36:28;25.38;;;16.52;;
47545;SDS011;50104;52.002;4.688;2023-05-07T00:41:30;25.85;;;16.17;;
47545;SDS011;50104;52.002;4.688;2023-05-07T00:46:31;21.75;;;15.75;;
47545;SDS011;50104;52.002;4.688;2023-05-07T00:51:32;22.80;;;17.17;;
47545;SDS011;50104;52.002;4.688;2023-05-07T00:56:34;26.90;;;18.48;;
47545;SDS011;50104;52.002;4.688;2023-05-07T01:01:35;26.38;;;19.20;;
47545;SDS011;50104;52.002;4.688;2023-05-07T01:06:37;28.75;;;19.83;;
47545;SDS011;50104;52.002;4.688;2023-05-07T01:11:39;28.52;;;20.13;;
47545;SDS011;50104;52.002;4.688;2023-05-07T01:16:40;27.70;;;19.50;;
47545;SDS011;50104;52.002;4.688;2023-05-07T01:21:43;25.23;;;18.90;;
47545;SDS011;50104;52.002;4.688;2023-05-07T01:26:48;26.92;;;19.83;;
47545;SDS011;50104;52.002;4.688;2023-05-07T01:31:48;28.05;;;20.38;;
47545;SDS011;50104;52.002;4.688;2023-05-07T01:36:52;25.80;;;20.17;;
47545;SDS011;50104;52.002;4.688;2023-05-07T01:41:56;26.83;;;18.60;;
47545;SDS011;50104;52.002;4.688;2023-05-07T01:46:57;28.35;;;20.65;;
47545;SDS011;50104;52.002;4.688;2023-05-07T01:51:58;24.20;;;19.15;;
47545;SDS011;50104;52.002;4.688;2023-05-07T01:57:00;24.63;;;18.40;;
47545;SDS011;50104;52.002;4.688;2023-05-07T02:02:00;24.20;;;19.27;;
47545;SDS011;50104;52.002;4.688;2023-05-07T02:07:01;22.13;;;17.65;;
47545;SDS011;50104;52.002;4.688;2023-05-07T02:12:02;26.40;;;18.23;;
47545;SDS011;50104;52.002;4.688;2023-05-07T02:17:03;21.23;;;18.00;;
47545;SDS011;50104;52.002;4.688;2023-05-07T02:22:04;20.35;;;15.75;;
47545;SDS011;50104;52.002;4.688;2023-05-07T02:27:05;20.00;;;16.48;;
47545;SDS011;50104;52.002;4.688;2023-05-07T02:32:06;17.88;;;14.73;;
47545;SDS011;50104;52.002;4.688;2023-05-07T02:37:08;20.77;;;16.73;;
47545;SDS011;50104;52.002;4.688;2023-05-07T02:42:08;20.90;;;15.18;;
47545;SDS011;50104;52.002;4.688;2023-05-07T02:47:09;19.85;;;14.77;;
47545;SDS011;50104;52.002;4.688;2023-05-07T02:52:10;16.38;;;14.68;;
47545;SDS011;50104;52.002;4.688;2023-05-07T02:57:11;15.23;;;13.40;;
47545;SDS011;50104;52.002;4.688;2023-05-07T03:02:12;17.83;;;13.65;;
47545;SDS011;50104;52.002;4.688;2023-05-07T03:07:12;14.82;;;13.15;;
47545;SDS011;50104;52.002;4.688;2023-05-07T03:12:14;15.98;;;13.25;;
47545;SDS011;50104;52.002;4.688;2023-05-07T03:17:15;15.75;;;14.10;;
47545;SDS011;50104;52.002;4.688;2023-05-07T03:22:16;13.98;;;12.52;;
47545;SDS011;50104;52.002;4.688;2023-05-07T03:27:17;14.32;;;12.70;;
47545;SDS011;50104;52.002;4.688;2023-05-07T03:32:18;13.90;;;12.50;;
47545;SDS011;50104;52.002;4.688;2023-05-07T03:37:19;14.25;;;12.88;;
47545;SDS011;50104;52.002;4.688;2023-05-07T03:42:21;13.25;;;11.85;;
47545;SDS011;50104;52.002;4.688;2023-05-07T03:47:24;13.77;;;12.35;;
47545;SDS011;50104;52.002;4.688;2023-05-07T03:52:24;13.48;;;11.98;;
47545;SDS011;50104;52.002;4.688;2023-05-07T03:57:26;14.88;;;12.77;;
47545;SDS011;50104;52.002;4.688;2023-05-07T04:02:26;14.57;;;13.18;;
47545;SDS011;50104;52.002;4.688;2023-05-07T04:07:27;15.45;;;13.13;;
47545;SDS011;50104;52.002;4.688;2023-05-07T04:12:28;13.93;;;12.48;;
47545;SDS011;50104;52.002;4.688;2023-05-07T04:17:29;13.40;;;12.07;;
47545;SDS011;50104;52.002;4.688;2023-05-07T04:22:30;13.80;;;11.80;;
47545;SDS011;50104;52.002;4.688;2023-05-07T04:27:30;12.65;;;11.25;;
47545;SDS011;50104;52.002;4.688;2023-05-07T04:32:32;13.43;;;12.13;;
47545;SDS011;50104;52.002;4.688;2023-05-07T04:37:33;12.95;;;11.63;;
47545;SDS011;50104;52.002;4.688;2023-05-07T04:42:34;13.23;;;11.82;;
47545;SDS011;50104;52.002;4.688;2023-05-07T04:47:35;13.18;;;11.88;;
47545;SDS011;50104;52.002;4.688;2023-05-07T04:52:37;13.55;;;11.90;;
47545;SDS011;50104;52.002;4.688;2023-05-07T04:57:37;13.40;;;11.93;;
47545;SDS011;50104;52.002;4.688;2023-05-07T05:02:40;14.02;;;11.60;;
47545;SDS011;50104;52.002;4.688;2023-05-07T05:07:41;14.95;;;11.55;;
47545;SDS011;50104;52.002;4.688;2023-05-07T05:12:42;14.52;;;12.88;;
47545;SDS011;50104;52.002;4.688;2023-05-07T05:17:44;13.73;;;11.82;;
47545;SDS011;50104;52.002;4.688;2023-05-07T05:22:45;14.18;;;12.68;;
47545;SDS011;50104;52.002;4.688;2023-05-07T05:27:45;15.25;;;12.73;;
47545;SDS011;50104;52.002;4.688;2023-05-07T05:32:46;15.75;;;12.65;;
47545;SDS011;50104;52.002;4.688;2023-05-07T05:37:47;18.17;;;14.18;;
47545;SDS011;50104;52.002;4.688;2023-05-07T05:42:48;15.05;;;13.55;;
47545;SDS011;50104;52.002;4.688;2023-05-07T05:47:49;17.40;;;14.95;;
47545;SDS011;50104;52.002;4.688;2023-05-07T05:52:49;17.48;;;14.95;;
47545;SDS011;50104;52.002;4.688;2023-05-07T05:57:50;18.23;;;15.60;;
47545;SDS011;50104;52.002;4.688;2023-05-07T06:02:51;17.88;;;15.57;;
47545;SDS011;50104;52.002;4.688;2023-05-07T06:07:52;19.33;;;15.25;;
47545;SDS011;50104;52.002;4.688;2023-05-07T06:12:53;18.70;;;15.95;;
47545;SDS011;50104;52.002;4.688;2023-05-07T06:17:54;22.55;;;16.35;;
47545;SDS011;50104;52.002;4.688;2023-05-07T06:22:57;20.35;;;16.90;;
47545;SDS011;50104;52.002;4.688;2023-05-07T06:27:58;21.52;;;17.50;;
47545;SDS011;50104;52.002;4.688;2023-05-07T06:33:03;23.88;;;18.58;;
47545;SDS011;50104;52.002;4.688;2023-05-07T06:38:04;24.17;;;18.30;;
47545;SDS011;50104;52.002;4.688;2023-05-07T06:43:05;23.95;;;18.55;;
47545;SDS011;50104;52.002;4.688;2023-05-07T06:48:07;25.48;;;19.25;;
47545;SDS011;50104;52.002;4.688;2023-05-07T06:53:12;23.95;;;19.83;;
47545;SDS011;50104;52.002;4.688;2023-05-07T06:58:12;22.85;;;19.05;;
47545;SDS011;50104;52.002;4.688;2023-05-07T07:03:13;22.70;;;17.70;;
47545;SDS011;50104;52.002;4.688;2023-05-07T07:08:15;19.08;;;15.95;;
47545;SDS011;50104;52.002;4.688;2023-05-07T07:13:18;23.10;;;17.10;;
47545;SDS011;50104;52.002;4.688;2023-05-07T07:18:19;19.40;;;16.13;;
47545;SDS011;50104;52.002;4.688;2023-05-07T07:23:20;21.25;;;17.20;;
47545;SDS011;50104;52.002;4.688;2023-05-07T07:28:21;20.52;;;17.70;;
47545;SDS011;50104;52.002;4.688;2023-05-07T07:33:23;21.67;;;18.67;;
47545;SDS011;50104;52.002;4.688;2023-05-07T07:38:23;21.67;;;17.35;;
47545;SDS011;50104;52.002;4.688;2023-05-07T07:43:24;25.25;;;21.20;;
47545;SDS011;50104;52.002;4.688;2023-05-07T07:48:25;21.58;;;18.98;;
47545;SDS011;50104;52.002;4.688;2023-05-07T07:53:26;26.08;;;22.33;;
47545;SDS011;50104;52.002;4.688;2023-05-07T07:58:27;22.30;;;19.02;;
47545;SDS011;50104;52.002;4.688;2023-05-07T08:03:27;26.63;;;19.08;;
47545;SDS011;50104;52.002;4.688;2023-05-07T08:08:31;23.13;;;19.90;;
47545;SDS011;50104;52.002;4.688;2023-05-07T08:13:32;25.02;;;20.25;;
47545;SDS011;50104;52.002;4.688;2023-05-07T08:18:33;21.75;;;18.77;;
47545;SDS011;50104;52.002;4.688;2023-05-07T08:23:34;23.00;;;18.73;;
47545;SDS011;50104;52.002;4.688;2023-05-07T08:28:35;18.15;;;16.15;;
47545;SDS011;50104;52.002;4.688;2023-05-07T08:33:35;19.85;;;16.52;;
47545;SDS011;50104;52.002;4.688;2023-05-07T08:38:38;16.00;;;13.80;;
47545;SDS011;50104;52.002;4.688;2023-05-07T08:43:41;19.90;;;16.17;;
47545;SDS011;50104;52.002;4.688;2023-05-07T08:48:42;19.05;;;15.13;;
47545;SDS011;50104;52.002;4.688;2023-05-07T08:53:43;18.13;;;15.27;;
47545;SDS011;50104;52.002;4.688;2023-05-07T08:58:44;15.32;;;12.32;;
47545;SDS011;50104;52.002;4.688;2023-05-07T09:03:46;14.32;;;12.00;;
47545;SDS011;50104;52.002;4.688;2023-05-07T09:08:50;12.95;;;11.63;;
47545;SDS011;50104;52.002;4.688;2023-05-07T09:13:54;11.23;;;9.53;;
47545;SDS011;50104;52.002;4.688;2023-05-07T09:18:58;13.15;;;10.80;;
47545;SDS011;50104;52.002;4.688;2023-05-07T09:24:03;11.98;;;10.07;;
47545;SDS011;50104;52.002;4.688;2023-05-07T09:29:04;13.45;;;9.15;;
47545;SDS011;50104;52.002;4.688;2023-05-07T09:34:07;8.60;;;5.85;;
47545;SDS011;50104;52.002;4.688;2023-05-07T09:39:08;7.32;;;5.35;;
47545;SDS011;50104;52.002;4.688;2023-05-07T09:44:09;9.02;;;5.43;;
47545;SDS011;50104;52.002;4.688;2023-05-07T09:49:16;8.43;;;6.88;;
47545;SDS011;50104;52.002;4.688;2023-05-07T09:54:23;8.40;;;6.60;;
47545;SDS011;50104;52.002;4.688;2023-05-07T09:59:24;8.93;;;7.07;;
47545;SDS011;50104;52.002;4.688;2023-05-07T10:04:28;11.32;;;7.43;;
47545;SDS011;50104;52.002;4.688;2023-05-07T10:09:31;8.00;;;7.20;;
47545;SDS011;50104;52.002;4.688;2023-05-07T10:14:32;7.38;;;6.00;;
47545;SDS011;50104;52.002;4.688;2023-05-07T10:19:34;11.00;;;6.07;;
47545;SDS011;50104;52.002;4.688;2023-05-07T10:24:38;8.02;;;6.97;;
47545;SDS011;50104;52.002;4.688;2023-05-07T10:35:16;8.20;;;7.10;;
47545;SDS011;50104;52.002;4.688;2023-05-07T10:40:22;8.75;;;7.07;;
47545;SDS011;50104;52.002;4.688;2023-05-07T10:45:24;11.02;;;7.20;;
47545;SDS011;50104;52.002;4.688;2023-05-07T10:50:25;8.70;;;6.38;;
47545;SDS011;50104;52.002;4.688;2023-05-07T10:55:26;8.40;;;6.70;;
47545;SDS011;50104;52.002;4.688;2023-05-07T11:00:40;6.97;;;5.32;;
47545;SDS011;50104;52.002;4.688;2023-05-07T11:05:42;9.27;;;5.88;;
47545;SDS011;50104;52.002;4.688;2023-05-07T11:10:50;6.65;;;5.25;;
47545;SDS011;50104;52.002;4.688;2023-05-07T11:15:56;7.18;;;5.57;;
47545;SDS011;50104;52.002;4.688;2023-05-07T11:20:58;6.90;;;4.78;;
47545;SDS011;50104;52.002;4.688;2023-05-07T11:31:04;7.75;;;4.85;;
47545;SDS011;50104;52.002;4.688;2023-05-07T11:36:07;6.78;;;5.47;;
47545;SDS011;50104;52.002;4.688;2023-05-07T11:41:08;9.60;;;6.55;;
47545;SDS011;50104;52.002;4.688;2023-05-07T11:46:10;7.57;;;6.57;;
47545;SDS011;50104;52.002;4.688;2023-05-07T11:51:14;6.90;;;6.18;;
47545;SDS011;50104;52.002;4.688;2023-05-07T11:56:24;12.20;;;6.78;;
47545;SDS011;50104;52.002;4.688;2023-05-07T12:01:25;11.00;;;7.63;;
47545;SDS011;50104;52.002;4.688;2023-05-07T12:06:25;7.30;;;6.22;;
47545;SDS011;50104;52.002;4.688;2023-05-07T12:11:27;8.90;;;6.40;;
47545;SDS011;50104;52.002;4.688;2023-05-07T12:16:28;7.10;;;6.40;;
47545;SDS011;50104;52.002;4.688;2023-05-07T12:21:30;9.20;;;6.35;;
47545;SDS011;50104;52.002;4.688;2023-05-07T12:26:30;7.47;;;6.75;;
47545;SDS011;50104;52.002;4.688;2023-05-07T12:31:31;9.65;;;6.85;;
47545;SDS011;50104;52.002;4.688;2023-05-07T12:36:39;8.07;;;7.03;;
47545;SDS011;50104;52.002;4.688;2023-05-07T12:41:56;8.70;;;7.32;;
47545;SDS011;50104;52.002;4.688;2023-05-07T12:47:02;7.60;;;6.90;;
47545;SDS011;50104;52.002;4.688;2023-05-07T12:52:03;8.30;;;7.05;;
47545;SDS011;50104;52.002;4.688;2023-05-07T12:57:06;8.82;;;7.90;;
47545;SDS011;50104;52.002;4.688;2023-05-07T13:02:09;8.82;;;7.35;;
47545;SDS011;50104;52.002;4.688;2023-05-07T13:07:09;9.35;;;7.90;;
47545;SDS011;50104;52.002;4.688;2023-05-07T13:12:11;10.35;;;7.97;;
47545;SDS011;50104;52.002;4.688;2023-05-07T13:17:11;9.77;;;8.75;;
47545;SDS011;50104;52.002;4.688;2023-05-07T13:22:12;8.02;;;7.22;;
47545;SDS011;50104;52.002;4.688;2023-05-07T13:27:13;8.50;;;7.75;;
47545;SDS011;50104;52.002;4.688;2023-05-07T13:32:14;11.10;;;8.10;;
47545;SDS011;50104;52.002;4.688;2023-05-07T13:37:14;9.93;;;8.93;;
47545;SDS011;50104;52.002;4.688;2023-05-07T13:42:15;9.65;;;8.10;;
47545;SDS011;50104;52.002;4.688;2023-05-07T13:47:16;13.65;;;9.65;;
47545;SDS011;50104;52.002;4.688;2023-05-07T13:52:19;13.18;;;9.60;;
47545;SDS011;50104;52.002;4.688;2023-05-07T13:57:20;15.77;;;10.93;;
47545;SDS011;50104;52.002;4.688;2023-05-07T14:02:21;14.70;;;11.38;;
47545;SDS011;50104;52.002;4.688;2023-05-07T14:07:22;19.55;;;11.85;;
47545;SDS011;50104;52.002;4.688;2023-05-07T14:12:25;15.32;;;11.30;;
47545;SDS011;50104;52.002;4.688;2023-05-07T14:17:26;14.68;;;10.88;;
47545;SDS011;50104;52.002;4.688;2023-05-07T14:22:27;16.35;;;11.20;;
47545;SDS011;50104;52.002;4.688;2023-05-07T14:27:28;13.45;;;10.43;;
47545;SDS011;50104;52.002;4.688;2023-05-07T14:32:28;13.40;;;10.65;;
47545;SDS011;50104;52.002;4.688;2023-05-07T14:37:29;13.60;;;11.63;;
47545;SDS011;50104;52.002;4.688;2023-05-07T14:42:30;14.52;;;12.10;;
47545;SDS011;50104;52.002;4.688;2023-05-07T14:47:31;12.38;;;11.05;;
47545;SDS011;50104;52.002;4.688;2023-05-07T14:52:32;16.65;;;12.70;;
47545;SDS011;50104;52.002;4.688;2023-05-07T14:57:32;12.98;;;10.88;;
47545;SDS011;50104;52.002;4.688;2023-05-07T15:02:34;11.85;;;10.02;;
47545;SDS011;50104;52.002;4.688;2023-05-07T15:07:35;15.27;;;10.30;;
47545;SDS011;50104;52.002;4.688;2023-05-07T15:12:36;10.75;;;9.65;;
47545;SDS011;50104;52.002;4.688;2023-05-07T15:17:37;10.57;;;9.57;;
47545;SDS011;50104;52.002;4.688;2023-05-07T15:22:38;10.77;;;9.63;;
47545;SDS011;50104;52.002;4.688;2023-05-07T15:27:39;11.75;;;9.82;;
47545;SDS011;50104;52.002;4.688;2023-05-07T15:32:40;12.48;;;9.65;;
47545;SDS011;50104;52.002;4.688;2023-05-07T15:37:41;12.27;;;9.68;;
47545;SDS011;50104;52.002;4.688;2023-05-07T15:42:44;16.33;;;9.88;;
47545;SDS011;50104;52.002;4.688;2023-05-07T15:47:45;13.43;;;9.48;;
47545;SDS011;50104;52.002;4.688;2023-05-07T15:52:46;11.95;;;9.50;;
47545;SDS011;50104;52.002;4.688;2023-05-07T15:57:47;13.00;;;10.23;;
47545;SDS011;50104;52.002;4.688;2023-05-07T16:02:48;11.75;;;10.23;;
47545;SDS011;50104;52.002;4.688;2023-05-07T16:07:49;12.73;;;10.30;;
47545;SDS011;50104;52.002;4.688;2023-05-07T16:12:49;14.07;;;9.90;;
47545;SDS011;50104;52.002;4.688;2023-05-07T16:17:50;11.40;;;10.25;;
47545;SDS011;50104;52.002;4.688;2023-05-07T16:23:11;13.07;;;10.75;;
47545;SDS011;50104;52.002;4.688;2023-05-07T16:28:12;12.25;;;10.32;;
47545;SDS011;50104;52.002;4.688;2023-05-07T16:33:13;16.30;;;10.40;;
47545;SDS011;50104;52.002;4.688;2023-05-07T16:38:14;10.27;;;9.23;;
47545;SDS011;50104;52.002;4.688;2023-05-07T16:43:15;13.15;;;9.13;;
47545;SDS011;50104;52.002;4.688;2023-05-07T16:48:16;10.73;;;8.65;;
47545;SDS011;50104;52.002;4.688;2023-05-07T16:53:16;11.65;;;9.57;;
47545;SDS011;50104;52.002;4.688;2023-05-07T16:58:17;13.18;;;9.25;;
47545;SDS011;50104;52.002;4.688;2023-05-07T17:03:18;10.75;;;9.43;;
47545;SDS011;50104;52.002;4.688;2023-05-07T17:08:20;13.80;;;9.18;;
47545;SDS011;50104;52.002;4.688;2023-05-07T17:13:21;26.75;;;24.15;;
47545;SDS011;50104;52.002;4.688;2023-05-07T17:18:21;18.73;;;15.77;;
47545;SDS011;50104;52.002;4.688;2023-05-07T17:23:22;12.02;;;10.60;;
47545;SDS011;50104;52.002;4.688;2023-05-07T17:28:23;14.68;;;13.07;;
47545;SDS011;50104;52.002;4.688;2023-05-07T17:33:24;13.45;;;10.63;;
47545;SDS011;50104;52.002;4.688;2023-05-07T17:38:25;11.23;;;10.02;;
47545;SDS011;50104;52.002;4.688;2023-05-07T17:43:25;14.27;;;12.05;;
47545;SDS011;50104;52.002;4.688;2023-05-07T17:48:26;17.88;;;13.57;;
47545;SDS011;50104;52.002;4.688;2023-05-07T17:53:27;13.48;;;11.40;;
47545;SDS011;50104;52.002;4.688;2023-05-07T17:58:31;14.43;;;11.27;;
47545;SDS011;50104;52.002;4.688;2023-05-07T18:03:32;17.00;;;10.75;;
47545;SDS011;50104;52.002;4.688;2023-05-07T18:08:34;13.68;;;10.52;;
47545;SDS011;50104;52.002;4.688;2023-05-07T18:13:35;14.50;;;10.98;;
47545;SDS011;50104;52.002;4.688;2023-05-07T18:18:35;12.00;;;10.75;;
47545;SDS011;50104;52.002;4.688;2023-05-07T18:23:36;15.10;;;11.85;;
47545;SDS011;50104;52.002;4.688;2023-05-07T18:28:37;17.35;;;12.73;;
47545;SDS011;50104;52.002;4.688;2023-05-07T18:33:38;13.55;;;11.88;;
47545;SDS011;50104;52.002;4.688;2023-05-07T18:38:39;20.00;;;13.60;;
47545;SDS011;50104;52.002;4.688;2023-05-07T18:43:41;18.08;;;14.05;;
47545;SDS011;50104;52.002;4.688;2023-05-07T18:48:42;15.98;;;13.13;;
47545;SDS011;50104;52.002;4.688;2023-05-07T18:53:43;17.10;;;14.32;;
47545;SDS011;50104;52.002;4.688;2023-05-07T18:58:44;18.65;;;15.23;;
47545;SDS011;50104;52.002;4.688;2023-05-07T19:03:45;20.67;;;15.48;;
47545;SDS011;50104;52.002;4.688;2023-05-07T19:08:45;20.02;;;15.93;;
47545;SDS011;50104;52.002;4.688;2023-05-07T19:13:46;23.60;;;16.27;;
47545;SDS011;50104;52.002;4.688;2023-05-07T19:18:47;20.27;;;17.00;;
47545;SDS011;50104;52.002;4.688;2023-05-07T19:23:48;21.40;;;17.27;;
47545;SDS011;50104;52.002;4.688;2023-05-07T19:28:52;18.33;;;16.25;;
47545;SDS011;50104;52.002;4.688;2023-05-07T19:33:53;20.88;;;16.73;;
47545;SDS011;50104;52.002;4.688;2023-05-07T19:38:53;21.52;;;17.25;;
47545;SDS011;50104;52.002;4.688;2023-05-07T19:43:54;21.77;;;16.77;;
47545;SDS011;50104;52.002;4.688;2023-05-07T19:48:55;18.92;;;15.70;;
47545;SDS011;50104;52.002;4.688;2023-05-07T19:53:56;18.55;;;14.70;;
47545;SDS011;50104;52.002;4.688;2023-05-07T19:58:58;16.77;;;15.07;;
47545;SDS011;50104;52.002;4.688;2023-05-07T20:03:59;17.00;;;13.60;;
47545;SDS011;50104;52.002;4.688;2023-05-07T20:09:00;17.73;;;13.55;;
47545;SDS011;50104;52.002;4.688;2023-05-07T20:14:00;16.05;;;12.65;;
47545;SDS011;50104;52.002;4.688;2023-05-07T20:19:03;14.43;;;12.50;;
47545;SDS011;50104;52.002;4.688;2023-05-07T20:24:04;15.30;;;13.15;;
47545;SDS011;50104;52.002;4.688;2023-05-07T20:29:07;14.52;;;12.75;;
47545;SDS011;50104;52.002;4.688;2023-05-07T20:34:07;15.15;;;13.63;;
47545;SDS011;50104;52.002;4.688;2023-05-07T20:39:08;14.35;;;12.95;;
47545;SDS011;50104;52.002;4.688;2023-05-07T20:44:13;16.63;;;13.27;;
47545;SDS011;50104;52.002;4.688;2023-05-07T20:49:15;15.02;;;12.88;;
47545;SDS011;50104;52.002;4.688;2023-05-07T20:54:17;15.00;;;13.27;;
47545;SDS011;50104;52.002;4.688;2023-05-07T20:59:19;19.23;;;16.00;;
47545;SDS011;50104;52.002;4.688;2023-05-07T21:04:20;18.05;;;14.57;;
47545;SDS011;50104;52.002;4.688;2023-05-07T21:09:20;18.70;;;15.90;;
47545;SDS011;50104;52.002;4.688;2023-05-07T21:14:21;20.15;;;17.90;;
47545;SDS011;50104;52.002;4.688;2023-05-07T21:19:22;24.15;;;18.85;;
47545;SDS011;50104;52.002;4.688;2023-05-07T21:24:23;22.80;;;19.30;;
47545;SDS011;50104;52.002;4.688;2023-05-07T21:29:24;29.30;;;22.70;;
47545;SDS011;50104;52.002;4.688;2023-05-07T21:34:27;25.88;;;21.10;;
47545;SDS011;50104;52.002;4.688;2023-05-07T21:39:27;26.67;;;20.45;;
47545;SDS011;50104;52.002;4.688;2023-05-07T21:44:29;32.78;;;22.60;;
47545;SDS011;50104;52.002;4.688;2023-05-07T21:49:30;32.13;;;25.40;;
47545;SDS011;50104;52.002;4.688;2023-05-07T21:54:33;36.60;;;25.30;;
47545;SDS011;50104;52.002;4.688;2023-05-07T21:59:34;34.30;;;26.33;;
47545;SDS011;50104;52.002;4.688;2023-05-07T22:04:36;41.15;;;30.75;;
47545;SDS011;50104;52.002;4.688;2023-05-07T22:09:37;44.10;;;33.53;;
47545;SDS011;50104;52.002;4.688;2023-05-07T22:14:37;39.50;;;30.80;;
47545;SDS011;50104;52.002;4.688;2023-05-07T22:19:38;43.15;;;32.78;;
47545;SDS011;50104;52.002;4.688;2023-05-07T22:24:39;42.55;;;32.25;;
47545;SDS011;50104;52.002;4.688;2023-05-07T22:29:42;38.75;;;29.42;;
47545;SDS011;50104;52.002;4.688;2023-05-07T22:34:44;43.58;;;31.25;;
47545;SDS011;50104;52.002;4.688;2023-05-07T22:39:44;37.53;;;29.00;;
47545;SDS011;50104;52.002;4.688;2023-05-07T22:44:50;41.42;;;30.67;;
47545;SDS011;50104;52.002;4.688;2023-05-07T22:49:57;43.97;;;31.50;;
47545;SDS011;50104;52.002;4.688;2023-05-07T22:54:58;44.30;;;32.22;;
47545;SDS011;50104;52.002;4.688;2023-05-07T22:59:59;40.47;;;30.38;;
47545;SDS011;50104;52.002;4.688;2023-05-07T23:05:00;40.05;;;30.80;;
47545;SDS011;50104;52.002;4.688;2023-05-07T23:10:01;43.38;;;30.02;;
47545;SDS011;50104;52.002;4.688;2023-05-07T23:15:06;39.28;;;29.88;;
47545;SDS011;50104;52.002;4.688;2023-05-07T23:20:07;41.17;;;31.13;;
47545;SDS011;50104;52.002;4.688;2023-05-07T23:25:09;39.78;;;30.35;;
47545;SDS011;50104;52.002;4.688;2023-05-07T23:30:10;44.80;;;32.47;;
47545;SDS011;50104;52.002;4.688;2023-05-07T23:35:12;38.50;;;30.20;;
47545;SDS011;50104;52.002;4.688;2023-05-07T23:40:12;38.35;;;30.85;;
47545;SDS011;50104;52.002;4.688;2023-05-07T23:45:14;45.55;;;34.10;;
47545;SDS011;50104;52.002;4.688;2023-05-07T23:50:15;43.75;;;33.00;;
47545;SDS011;50104;52.002;4.688;2023-05-07T23:55:15;41.85;;;32.10;;
